createdAt,value
2022-08-05T00:02:07.391Z,23.40
2022-08-05T00:04:38.205Z,23.30
2022-08-05T00:07:27.075Z,23.30
2022-08-05T00:10:03.066Z,23.30
2022-08-05T00:12:33.326Z,23.30
2022-08-05T00:15:56.310Z,23.30
2022-08-05T00:18:08.935Z,23.10
2022-08-05T00:20:49.910Z,23.00
2022-08-05T00:23:44.443Z,23.00
2022-08-05T00:26:14.198Z,23.10
2022-08-05T00:28:47.234Z,23.10
2022-08-05T00:31:41.436Z,23.00
2022-08-05T00:34:54.150Z,22.80
2022-08-05T00:37:13.177Z,22.70
2022-08-05T00:39:57.869Z,22.70
2022-08-05T00:42:41.629Z,22.70
2022-08-05T00:45:13.650Z,22.50
2022-08-05T00:47:53.091Z,22.50
2022-08-05T00:50:26.495Z,22.50
2022-08-05T00:52:57.116Z,22.50
2022-08-05T00:55:42.506Z,22.50
2022-08-05T00:58:19.215Z,22.50
2022-08-05T01:00:50.429Z,22.40
2022-08-05T01:03:22.920Z,22.10
2022-08-05T01:05:54.638Z,21.90
2022-08-05T01:08:42.581Z,21.90
2022-08-05T01:11:24.123Z,22.00
2022-08-05T01:14:27.891Z,21.90
2022-08-05T01:17:13.618Z,21.70
2022-08-05T01:20:00.962Z,21.90
2022-08-05T01:22:49.923Z,21.90
2022-08-05T01:26:03.601Z,21.90
2022-08-05T01:28:46.601Z,22.00
2022-08-05T01:31:29.234Z,22.10
2022-08-05T01:34:11.712Z,22.30
2022-08-05T01:36:49.525Z,22.40
2022-08-05T01:39:36.096Z,22.50
2022-08-05T01:42:17.534Z,22.50
2022-08-05T01:44:53.952Z,22.40
2022-08-05T01:47:38.675Z,22.40
2022-08-05T01:50:17.375Z,22.40
2022-08-05T01:52:51.601Z,22.60
2022-08-05T01:55:26.429Z,22.80
2022-08-05T01:58:14.597Z,22.90
2022-08-05T02:00:53.865Z,23.00
2022-08-05T02:03:34.276Z,23.10
2022-08-05T02:06:33.223Z,23.10
2022-08-05T02:08:58.935Z,23.20
2022-08-05T02:11:35.606Z,23.20
2022-08-05T02:14:17.974Z,23.30
2022-08-05T02:16:55.333Z,23.30
2022-08-05T02:19:35.971Z,23.40
2022-08-05T02:22:25.597Z,23.40
2022-08-05T02:25:05.380Z,23.40
2022-08-05T02:27:59.657Z,23.40
2022-08-05T02:30:51.859Z,23.50
2022-08-05T02:33:36.125Z,23.50
2022-08-05T02:36:15.354Z,23.40
2022-08-05T02:38:53.221Z,23.40
2022-08-05T02:41:28.447Z,23.50
2022-08-05T02:44:13.109Z,23.40
2022-08-05T02:46:59.678Z,23.30
2022-08-05T02:49:40.432Z,23.40
2022-08-05T02:52:29.678Z,23.30
2022-08-05T02:55:05.524Z,23.30
2022-08-05T02:58:10.281Z,23.30
2022-08-05T03:00:34.256Z,23.20
2022-08-05T03:03:10.297Z,23.30
2022-08-05T03:06:53.821Z,23.30
2022-08-05T03:08:35.754Z,23.40
2022-08-05T03:11:55.561Z,23.40
2022-08-05T03:14:04.078Z,23.40
2022-08-05T03:16:35.659Z,23.30
2022-08-05T03:19:12.769Z,23.30
2022-08-05T03:21:50.143Z,23.20
2022-08-05T03:24:27.562Z,23.20
2022-08-05T03:27:01.355Z,23.20
2022-08-05T03:29:45.837Z,23.20
2022-08-05T03:32:31.053Z,23.20
2022-08-05T03:35:04.419Z,23.10
2022-08-05T03:37:46.219Z,23.00
2022-08-05T03:40:24.580Z,22.90
2022-08-05T03:43:59.257Z,22.70
2022-08-05T03:45:57.416Z,22.60
2022-08-05T03:48:29.735Z,22.80
2022-08-05T03:52:38.009Z,22.60
2022-08-05T03:56:01.577Z,22.50
2022-08-05T03:57:16.681Z,22.40
2022-08-05T03:59:55.560Z,22.30
2022-08-05T04:02:39.066Z,22.30
2022-08-05T04:05:23.021Z,22.30
2022-08-05T04:07:58.212Z,22.10
2022-08-05T04:10:37.365Z,21.90
2022-08-05T04:13:09.482Z,21.90
2022-08-05T04:15:39.712Z,21.90
2022-08-05T04:18:30.146Z,21.90
2022-08-05T04:21:01.599Z,21.90
2022-08-05T04:23:57.125Z,21.90
2022-08-05T04:26:26.010Z,21.90
2022-08-05T04:29:07.269Z,22.00
2022-08-05T04:31:38.496Z,22.00
2022-08-05T04:36:59.460Z,22.10
2022-08-05T04:39:31.101Z,22.10
2022-08-05T04:42:04.902Z,22.20
2022-08-05T04:44:34.969Z,22.30
2022-08-05T04:47:09.311Z,22.20
2022-08-05T04:50:02.829Z,22.20
2022-08-05T04:52:34.046Z,22.10
2022-08-05T04:55:13.896Z,22.10
2022-08-05T04:57:54.053Z,22.20
2022-08-05T05:00:24.473Z,22.40
2022-08-05T05:02:54.846Z,22.40
2022-08-05T05:05:28.715Z,22.50
2022-08-05T05:08:03.468Z,22.50
2022-08-05T05:10:36.346Z,22.20
2022-08-05T05:13:09.213Z,22.10
2022-08-05T05:15:56.952Z,22.40
2022-08-05T05:18:33.311Z,22.80
2022-08-05T05:21:05.534Z,23.30
2022-08-05T05:23:39.257Z,23.90
2022-08-05T05:26:28.359Z,24.60
2022-08-05T05:29:14.264Z,25.10
2022-08-05T05:31:46.345Z,25.40
2022-08-05T05:34:20.011Z,25.50
2022-08-05T05:36:54.202Z,26.30
2022-08-05T05:39:24.295Z,27.30
2022-08-05T05:42:01.627Z,28.20
2022-08-05T05:44:36.507Z,28.80
2022-08-05T05:47:21.223Z,29.60
2022-08-05T05:49:56.507Z,30.40
2022-08-05T05:52:28.731Z,31.20
2022-08-05T05:55:07.465Z,32.10
2022-08-05T05:57:52.539Z,32.50
2022-08-05T06:00:27.836Z,32.00
2022-08-05T06:03:39.786Z,32.30
2022-08-05T06:05:55.561Z,32.10
2022-08-05T06:08:32.611Z,31.40
2022-08-05T06:11:03.183Z,31.60
2022-08-05T06:13:40.797Z,32.10
2022-08-05T06:16:29.446Z,31.80
2022-08-05T06:19:05.954Z,30.70
2022-08-05T06:21:42.306Z,30.80
2022-08-05T06:24:25.628Z,30.50
2022-08-05T06:26:57.347Z,31.20
2022-08-05T06:29:46.828Z,31.60
2022-08-05T06:32:25.779Z,32.20
2022-08-05T06:34:57.789Z,32.70
2022-08-05T06:37:57.342Z,32.90
2022-08-05T06:40:21.205Z,32.90
2022-08-05T06:42:52.980Z,33.10
2022-08-05T06:45:45.070Z,33.50
2022-08-05T06:48:52.589Z,33.00
2022-08-05T06:51:09.613Z,32.30
2022-08-05T06:53:41.436Z,32.60
2022-08-05T06:56:26.003Z,33.10
2022-08-05T06:58:57.224Z,32.90
2022-08-05T07:01:32.443Z,33.70
2022-08-05T07:04:05.919Z,34.80
2022-08-05T07:06:35.916Z,35.10
2022-08-05T07:09:06.237Z,36.00
2022-08-05T07:14:29.782Z,36.50
2022-08-05T07:17:58.679Z,36.10
2022-08-05T07:22:47.871Z,37.20
2022-08-05T07:25:23.909Z,36.70
2022-08-05T07:28:11.706Z,36.00
2022-08-05T07:30:50.295Z,35.00
2022-08-05T07:33:37.090Z,35.70
2022-08-05T07:36:20.557Z,35.70
2022-08-05T07:38:54.710Z,35.10
2022-08-05T07:42:14.418Z,35.50
2022-08-05T07:44:19.427Z,35.30
2022-08-05T07:46:51.007Z,35.80
2022-08-05T07:49:21.994Z,35.40
2022-08-05T07:51:55.199Z,34.70
2022-08-05T07:54:30.960Z,34.70
2022-08-05T07:57:17.996Z,35.20
2022-08-05T07:59:54.608Z,35.20
2022-08-05T08:02:31.261Z,35.00
2022-08-05T08:05:19.169Z,35.80
2022-08-05T08:08:00.274Z,36.20
2022-08-05T08:10:31.301Z,36.80
2022-08-05T08:13:02.984Z,37.50
2022-08-05T08:16:33.421Z,38.40
2022-08-05T08:18:25.185Z,37.00
2022-08-05T08:21:02.098Z,36.10
2022-08-05T08:24:02.489Z,37.10
2022-08-05T08:26:26.811Z,38.10
2022-08-05T08:29:21.912Z,37.90
2022-08-05T08:31:52.629Z,37.80
2022-08-05T08:34:30.625Z,37.90
2022-08-05T08:37:05.155Z,38.50
2022-08-05T08:39:38.484Z,39.00
2022-08-05T08:42:33.936Z,39.60
2022-08-05T08:45:24.265Z,39.00
2022-08-05T08:48:06.981Z,38.80
2022-08-05T08:51:03.886Z,38.50
2022-08-05T08:53:45.041Z,38.70
2022-08-05T08:56:21.068Z,38.90
2022-08-05T08:58:52.669Z,38.90
2022-08-05T09:01:23.061Z,38.90
2022-08-05T09:03:58.394Z,39.70
2022-08-05T09:06:31.859Z,39.60
2022-08-05T09:09:04.291Z,40.20
2022-08-05T09:11:51.884Z,40.20
2022-08-05T09:14:56.768Z,40.20
2022-08-05T09:17:16.059Z,39.90
2022-08-05T09:20:08.628Z,39.50
2022-08-05T09:23:18.794Z,38.40
2022-08-05T09:26:03.878Z,38.40
2022-08-05T09:28:43.362Z,37.20
2022-08-05T09:31:44.251Z,36.20
2022-08-05T09:34:11.759Z,35.30
2022-08-05T09:36:56.052Z,36.40
2022-08-05T09:39:41.978Z,38.30
2022-08-05T09:42:23.105Z,40.50
2022-08-05T09:45:17.456Z,42.00
2022-08-05T09:47:55.896Z,43.40
2022-08-05T09:50:44.890Z,43.30
2022-08-05T09:53:22.840Z,42.60
2022-08-05T09:56:03.828Z,42.00
2022-08-05T09:58:35.153Z,41.60
2022-08-05T10:01:15.133Z,40.80
2022-08-05T10:04:00.418Z,40.20
2022-08-05T10:06:31.073Z,39.40
2022-08-05T10:09:25.069Z,39.90
2022-08-05T10:12:30.969Z,40.60
2022-08-05T10:15:20.559Z,40.50
2022-08-05T10:18:12.776Z,40.80
2022-08-05T10:20:47.824Z,40.90
2022-08-05T10:23:55.938Z,41.50
2022-08-05T10:26:15.236Z,41.30
2022-08-05T10:28:46.761Z,41.10
2022-08-05T10:32:47.911Z,43.10
2022-08-05T10:34:12.930Z,42.70
2022-08-05T10:36:44.944Z,41.60
2022-08-05T10:39:24.530Z,41.50
2022-08-05T10:42:06.179Z,43.10
2022-08-05T10:44:39.564Z,45.40
2022-08-05T10:50:31.722Z,47.40
2022-08-05T10:53:03.159Z,47.40
2022-08-05T10:56:03.248Z,46.40
2022-08-05T10:58:35.855Z,45.90
2022-08-05T11:01:15.126Z,46.30
2022-08-05T11:04:07.855Z,46.10
2022-08-05T11:07:12.010Z,46.40
2022-08-05T11:09:49.549Z,45.30
2022-08-05T11:12:50.852Z,42.00
2022-08-05T11:16:00.011Z,40.50
2022-08-05T11:18:34.071Z,40.10
2022-08-05T11:21:11.722Z,40.00
2022-08-05T11:24:04.964Z,41.00
2022-08-05T11:26:49.596Z,41.10
2022-08-05T11:29:40.827Z,42.30
2022-08-05T11:32:27.646Z,42.30
2022-08-05T11:34:58.919Z,41.40
2022-08-05T11:38:30.851Z,42.60
2022-08-05T11:41:34.816Z,42.00
2022-08-05T11:44:05.474Z,41.50
2022-08-05T11:47:09.509Z,41.00
2022-08-05T11:49:34.042Z,41.60
2022-08-05T11:52:11.562Z,41.30
2022-08-05T11:54:43.597Z,41.50
2022-08-05T11:57:25.660Z,41.00
2022-08-05T11:59:58.119Z,40.80
2022-08-05T12:02:33.703Z,41.20
2022-08-05T12:05:18.292Z,40.50
2022-08-05T12:08:03.757Z,41.90
2022-08-05T12:10:46.120Z,42.90
2022-08-05T12:13:47.775Z,43.70
2022-08-05T12:16:20.395Z,42.90
2022-08-05T12:18:57.891Z,41.70
2022-08-05T12:21:32.332Z,41.90
2022-08-05T12:24:06.979Z,42.20
2022-08-05T12:26:39.131Z,42.90
2022-08-05T12:29:16.165Z,43.20
2022-08-05T12:31:53.679Z,43.90
2022-08-05T12:34:31.581Z,43.50
2022-08-05T12:37:10.815Z,42.50
2022-08-05T12:39:48.761Z,41.80
2022-08-05T12:42:25.400Z,42.90
2022-08-05T12:45:08.873Z,42.50
2022-08-05T12:47:43.431Z,42.30
2022-08-05T12:50:31.874Z,42.30
2022-08-05T12:53:02.761Z,42.40
2022-08-05T12:55:35.400Z,43.00
2022-08-05T12:58:50.579Z,43.00
2022-08-05T13:02:00.765Z,43.00
2022-08-05T13:03:51.628Z,42.10
2022-08-05T13:06:21.828Z,41.10
2022-08-05T13:08:52.943Z,40.90
2022-08-05T13:12:02.019Z,40.10
2022-08-05T13:14:25.038Z,40.10
2022-08-05T13:17:13.224Z,39.90
2022-08-05T13:19:52.758Z,39.70
2022-08-05T13:22:27.960Z,40.90
2022-08-05T13:25:05.461Z,41.40
2022-08-05T13:27:40.642Z,42.30
2022-08-05T13:30:34.787Z,43.20
2022-08-05T13:33:07.581Z,43.90
2022-08-05T13:35:43.338Z,42.60
2022-08-05T13:38:30.719Z,41.90
2022-08-05T13:41:04.306Z,40.90
2022-08-05T13:43:45.690Z,41.30
2022-08-05T13:47:01.995Z,41.60
2022-08-05T13:49:17.297Z,42.40
2022-08-05T13:51:47.303Z,43.30
2022-08-05T13:54:20.983Z,43.00
2022-08-05T13:56:55.516Z,42.90
2022-08-05T13:59:27.279Z,43.40
2022-08-05T14:02:03.018Z,42.90
2022-08-05T14:04:51.868Z,42.50
2022-08-05T14:07:55.375Z,42.50
2022-08-05T14:10:28.939Z,42.30
2022-08-05T14:13:01.448Z,41.20
2022-08-05T14:16:05.536Z,39.70
2022-08-05T14:18:23.407Z,38.20
2022-08-05T14:20:56.799Z,36.60
2022-08-05T14:23:29.650Z,35.50
2022-08-05T14:26:06.855Z,34.90
2022-08-05T14:28:36.992Z,34.70
2022-08-05T14:32:02.910Z,34.40
2022-08-05T14:34:12.999Z,33.90
2022-08-05T14:36:48.652Z,33.60
2022-08-05T14:39:23.268Z,33.40
2022-08-05T14:42:19.510Z,33.20
2022-08-05T14:44:45.932Z,32.90
2022-08-05T14:47:16.026Z,32.70
2022-08-05T14:49:58.539Z,32.60
2022-08-05T14:52:52.583Z,32.30
2022-08-05T14:55:22.649Z,31.90
2022-08-05T14:57:54.294Z,31.60
2022-08-05T15:00:28.352Z,31.30
2022-08-05T15:02:59.589Z,31.10
2022-08-05T15:06:08.270Z,30.90
2022-08-05T15:08:58.187Z,30.80
2022-08-05T15:11:13.096Z,30.80
2022-08-05T15:13:46.602Z,30.90
2022-08-05T15:16:20.487Z,31.10
2022-08-05T15:18:52.368Z,30.80
2022-08-05T15:21:22.694Z,30.70
2022-08-05T15:23:57.158Z,31.20
2022-08-05T15:26:31.996Z,32.10
2022-08-05T15:29:02.734Z,33.30
2022-08-05T15:31:34.591Z,34.00
2022-08-05T15:34:31.534Z,34.30
2022-08-05T15:36:55.229Z,33.30
2022-08-05T15:41:00.019Z,32.90
2022-08-05T15:42:28.769Z,33.00
2022-08-05T15:45:11.438Z,32.70
2022-08-05T15:47:41.658Z,32.10
2022-08-05T15:50:15.426Z,31.80
2022-08-05T15:52:52.815Z,31.60
2022-08-05T15:56:03.165Z,31.60
2022-08-05T15:58:17.655Z,31.30
2022-08-05T16:00:50.643Z,31.70
2022-08-05T16:03:34.663Z,32.00
2022-08-05T16:06:12.980Z,31.70
2022-08-05T16:08:43.399Z,31.40
2022-08-05T16:11:17.360Z,30.90
2022-08-05T16:13:47.688Z,30.30
2022-08-05T16:16:21.317Z,30.10
2022-08-05T16:18:55.849Z,29.90
2022-08-05T16:22:01.195Z,29.90
2022-08-05T16:24:39.479Z,30.00
2022-08-05T16:27:10.352Z,30.10
2022-08-05T16:29:50.773Z,30.10
2022-08-05T16:32:28.261Z,29.60
2022-08-05T16:35:00.042Z,29.50
2022-08-05T16:38:03.733Z,29.30
2022-08-05T16:40:28.820Z,29.10
2022-08-05T16:43:01.975Z,29.00
2022-08-05T16:46:03.582Z,28.80
2022-08-05T16:48:25.840Z,28.80
2022-08-05T16:51:03.811Z,28.70
2022-08-05T16:54:05.649Z,28.70
2022-08-05T16:56:31.082Z,28.60
2022-08-05T16:59:08.178Z,28.60
2022-08-05T17:01:54.842Z,28.60
2022-08-05T17:04:28.132Z,28.60
2022-08-05T17:07:03.143Z,28.40
2022-08-05T17:09:56.028Z,28.40
2022-08-05T17:12:51.882Z,28.30
2022-08-05T17:15:19.331Z,28.00
2022-08-05T17:17:55.012Z,28.10
2022-08-05T17:20:26.718Z,28.20
2022-08-05T17:22:57.608Z,28.10
2022-08-05T17:25:33.657Z,28.10
2022-08-05T17:28:04.801Z,28.00
2022-08-05T17:30:50.820Z,28.00
2022-08-05T17:33:23.221Z,27.80
2022-08-05T17:36:08.840Z,27.80
2022-08-05T17:38:40.395Z,27.70
2022-08-05T17:41:11.713Z,27.40
2022-08-05T17:44:01.320Z,27.30
2022-08-05T17:46:35.941Z,27.30
2022-08-05T17:49:06.670Z,27.10
2022-08-05T17:51:40.119Z,27.00
2022-08-05T17:54:10.894Z,26.80
2022-08-05T17:56:40.980Z,26.60
2022-08-05T17:59:14.817Z,26.40
2022-08-05T18:01:53.815Z,26.30
2022-08-05T18:04:27.828Z,26.00
2022-08-05T18:07:01.128Z,25.90
2022-08-05T18:09:58.839Z,25.70
2022-08-05T18:12:24.446Z,25.60
2022-08-05T18:14:55.113Z,25.50
2022-08-05T18:18:01.414Z,25.40
2022-08-05T18:20:17.857Z,25.30
2022-08-05T18:22:54.887Z,25.20
2022-08-05T18:25:33.052Z,25.10
2022-08-05T18:28:05.023Z,25.10
2022-08-05T18:30:35.905Z,25.00
2022-08-05T18:33:13.451Z,25.00
2022-08-05T18:36:00.043Z,24.90
2022-08-05T18:38:36.590Z,24.90
2022-08-05T18:41:53.375Z,24.80
2022-08-05T18:44:06.269Z,24.80
2022-08-05T18:46:37.866Z,24.70
2022-08-05T18:49:30.774Z,24.60
2022-08-05T18:52:33.180Z,24.60
2022-08-05T18:55:06.546Z,24.50
2022-08-05T18:57:50.333Z,24.40
2022-08-05T19:00:28.539Z,24.30
2022-08-05T19:03:04.233Z,24.20
2022-08-05T19:06:12.135Z,24.20
2022-08-05T19:08:30.668Z,24.00
2022-08-05T19:11:04.441Z,24.00
2022-08-05T19:13:36.854Z,23.80
2022-08-05T19:16:22.071Z,23.80
2022-08-05T19:18:58.347Z,23.70
2022-08-05T19:21:34.839Z,23.60
2022-08-05T19:24:13.059Z,23.50
2022-08-05T19:26:54.529Z,23.50
2022-08-05T19:29:36.087Z,23.40
2022-08-05T19:32:11.240Z,23.40
2022-08-05T19:34:42.048Z,23.40
2022-08-05T19:37:47.203Z,23.30
2022-08-05T19:40:19.753Z,23.30
2022-08-05T19:43:05.600Z,23.30
2022-08-05T19:45:37.501Z,23.30
2022-08-05T19:48:14.438Z,23.20
2022-08-05T19:50:45.149Z,23.10
2022-08-05T19:53:17.848Z,23.10
2022-08-05T19:56:14.803Z,23.10
2022-08-05T19:58:58.757Z,23.10
2022-08-05T20:01:48.894Z,23.00
2022-08-05T20:04:18.981Z,23.00
2022-08-05T20:06:50.350Z,23.00
2022-08-05T20:09:23.252Z,22.90
2022-08-05T20:11:55.657Z,22.90
2022-08-05T20:14:27.072Z,22.90
2022-08-05T20:16:59.310Z,22.80
2022-08-05T20:19:36.129Z,22.70
2022-08-05T20:22:06.560Z,22.70
2022-08-05T20:24:43.301Z,22.70
2022-08-05T20:27:13.775Z,22.60
2022-08-05T20:29:57.939Z,22.50
2022-08-05T20:32:29.605Z,22.40
2022-08-05T20:34:59.953Z,22.20
2022-08-05T20:38:06.431Z,22.00
2022-08-05T20:40:22.746Z,21.80
2022-08-05T20:42:53.671Z,21.70
2022-08-05T20:45:56.478Z,21.60
2022-08-05T20:48:20.277Z,21.50
2022-08-05T20:50:50.621Z,21.50
2022-08-05T20:53:36.874Z,21.40
2022-08-05T20:56:11.389Z,21.30
2022-08-05T20:58:43.516Z,21.20
2022-08-05T21:01:14.041Z,21.00
2022-08-05T21:03:47.888Z,21.00
2022-08-05T21:06:27.753Z,21.00
2022-08-05T21:08:58.732Z,20.90
2022-08-05T21:12:09.534Z,20.90
2022-08-05T21:14:23.404Z,20.90
2022-08-05T21:16:56.766Z,20.80
2022-08-05T21:19:27.278Z,20.90
2022-08-05T21:21:58.453Z,20.90
2022-08-05T21:24:29.637Z,20.90
2022-08-05T21:27:02.677Z,20.90
2022-08-05T21:29:33.238Z,20.90
2022-08-05T21:32:11.108Z,20.90
2022-08-05T21:35:06.794Z,20.90
2022-08-05T21:37:41.382Z,20.50
2022-08-05T21:40:14.400Z,20.20
2022-08-05T21:42:51.931Z,19.90
2022-08-05T21:45:24.695Z,19.70
2022-08-05T21:47:58.109Z,19.60
2022-08-05T21:50:29.009Z,19.60
2022-08-05T21:53:04.437Z,19.60
2022-08-05T21:56:00.927Z,19.70
2022-08-05T21:58:32.227Z,19.70
2022-08-05T22:01:04.673Z,19.80
2022-08-05T22:03:52.463Z,19.90
2022-08-05T22:06:34.834Z,20.00
2022-08-05T22:09:13.874Z,20.00
2022-08-05T22:11:46.728Z,20.10
2022-08-05T22:14:37.232Z,20.10
2022-08-05T22:17:08.970Z,20.20
2022-08-05T22:20:00.696Z,20.30
2022-08-05T22:22:29.919Z,20.30
2022-08-05T22:25:21.752Z,20.30
2022-08-05T22:28:09.028Z,20.30
2022-08-05T22:30:57.213Z,20.40
2022-08-05T22:33:55.678Z,20.40
2022-08-05T22:36:23.790Z,20.40
2022-08-05T22:38:55.288Z,20.40
2022-08-05T22:41:25.901Z,20.40
2022-08-05T22:43:59.308Z,20.40
2022-08-05T22:46:31.936Z,20.40
2022-08-05T22:49:02.726Z,20.40
2022-08-05T22:52:04.330Z,20.40
2022-08-05T22:54:23.560Z,20.40
2022-08-05T22:56:53.610Z,20.40
2022-08-05T22:59:46.443Z,20.40
2022-08-05T23:02:16.987Z,20.20
2022-08-05T23:04:52.057Z,20.30
2022-08-05T23:07:22.858Z,20.20
2022-08-05T23:10:01.599Z,20.20
2022-08-05T23:12:33.430Z,20.20
2022-08-05T23:15:09.563Z,20.10
2022-08-05T23:18:00.903Z,20.10
2022-08-05T23:20:37.410Z,20.10
2022-08-05T23:23:09.047Z,20.20
2022-08-05T23:25:55.015Z,20.10
2022-08-05T23:28:27.790Z,20.10
2022-08-05T23:31:16.136Z,20.00
2022-08-05T23:34:05.582Z,20.00
2022-08-05T23:36:40.197Z,19.90
2022-08-05T23:39:32.090Z,19.90
2022-08-05T23:42:13.996Z,19.90
2022-08-05T23:44:44.490Z,19.90
2022-08-05T23:47:16.322Z,19.90
2022-08-05T23:49:51.976Z,19.80
2022-08-05T23:52:36.216Z,19.80
2022-08-05T23:55:21.588Z,19.80
2022-08-05T23:57:52.839Z,19.70
